Huvudsida
METAR-TAF:

METAR-TAF

Flygplatser :

Verona-Villafrancas flygplats

Verona, Italien

latitud: 45-23N, longitud: 010-52E, höjd: 67 m

Aktuellt väderrapport

Denna rapport gjordes för 24 minuter sedan, klockan 06:50 UTC
Vind 2 kt varierande vindriktning
Temperatur -3°C
Fuktighet 93%
Tryck 999 hPa
Sikt 10 km eller mer
Brutna moln på en höjd av 7000 ft

METAR: LIPX 250650Z VRB02KT 9999 BKN070 M03/M04 Q0999

Tid: 08:14 (07:14 UTC)

Väderprognos

Denna rapport gjordes för 2 timmar och 14 minuter sedan, klockan 05:00 UTC
Prognos gäller från 25 kl. 06 UTC till 25 kl. 15 UTC
Vind 5 kt varierande vindriktning
Sikt 10 km eller mer
Spridda moln på en höjd av 5000 ft

TAF: LIPX 250500Z 2506/2515 VRB05KT 9999 SCT050

Aktuella väderrapporter och prognoser från 4000 flygplatser (METAR- och TAF-rapporter).

De tillgängliga stationerna syns som gula och röda prickar på kartan.

För musen över prickarna för att se namnen på stationerna.

Klicka sedan för att få väderrapporter och prognoser.

För att ändra kartan: Klicka på de gröna knapparna med ett svart kors på för att zooma in; den gröna knappen med ett streck på för att zooma ut; eller på de gröna pilarna för angränsande kartor.


METAR-TAF: